Terminal Aerodrome Forecast
Issued by NWS Wilmington, OH

Current Version | Previous Version | Graphics & Text | Print | Product List | Glossary On
Versions: 1 2 3 4 5 6 7 8 9 10 11 12 13 14 15 16 17 18 19 20 21 22 23 24 25 26 27 28
000
FTUS41 KILN 190500
TAFCVG
TAF
KCVG 190526Z 1906/2012 23006KT P6SM BKN250
     FM191200 19010G18KT P6SM SCT060
     FM191400 19015G24KT P6SM SCT060 SCT120
     FM191800 21017G27KT P6SM BKN035 OVC120
     FM192100 24016G26KT P6SM VCSH OVC025
     FM200000 25009KT P6SM VCSH OVC015
     FM200900 27009KT P6SM OVC025=

USA.gov is the U.S. government's official web portal to all federal, state and local government web resources and services.